This is the latest recevied weather packets stored in our database for station/object EA1RCG-11. If no packets are shown the sender has not sent any weather packets the latest 10 day(s).
| Time | Temp. | Humidity | Pressure | Rain* | Wind** | Luminosity | Snow |
|---|---|---|---|---|---|---|---|
| 1778007881 | 15° C | 65% | 979.7 hPa | - | - | - | - |
| 1778006081 | 15° C | 65% | 979.5 hPa | - | - | - | - |
| 1778004281 | 15.56° C | 64% | 979.2 hPa | - | - | - | - |
| 1778002481 | 15° C | 64% | 979.4 hPa | - | - | - | - |
| 1778000681 | 15.56° C | 64% | 979.3 hPa | - | - | - | - |
| 1777998880 | 16.11° C | 63% | 979.4 hPa | - | - | - | - |
| 1777997080 | 16.67° C | 62% | 979.4 hPa | - | - | - | - |
| 1777995280 | 16.11° C | 62% | 979.2 hPa | - | - | - | - |
| 1777993480 | 15° C | 65% | 979 hPa | - | - | - | - |
| 1777991680 | 14.44° C | 67% | 978.9 hPa | - | - | - | - |
| 1777989880 | 20° C | 57% | 978.2 hPa | - | - | - | - |
| 1777988080 | 17.78° C | 60% | 978.3 hPa | - | - | - | - |
| 1777986280 | 15.56° C | 64% | 978.1 hPa | - | - | - | - |
| 1777984480 | 20° C | 58% | 977.4 hPa | - | - | - | - |
| 1777982680 | 20° C | 58% | 977.8 hPa | - | - | - | - |
| 1777980880 | 21.11° C | 56% | 977.7 hPa | - | - | - | - |
| 1777979079 | 23.33° C | 54% | 977.9 hPa | - | - | - | - |
| 1777977279 | 40.56° C | 34% | 978.3 hPa | - | - | - | - |
| 1777975479 | 21.67° C | 55% | 978.3 hPa | - | - | - | - |
| 1777973679 | 28.33° C | 45% | 978.3 hPa | - | - | - | - |
| 1777971879 | 20° C | 56% | 978.4 hPa | - | - | - | - |
| 1777970079 | 19.44° C | 57% | 978.5 hPa | - | - | - | - |
| 1777968279 | 30° C | 42% | 978.3 hPa | - | - | - | - |
| 1777966479 | 17.78° C | 58% | 978.6 hPa | - | - | - | - |
| 1777964678 | 16.67° C | 58% | 978.7 hPa | - | - | - | - |
* Rain since midnight (hover to see other rain measurements)
** Current wind speed in m/s (hover to see current wind gust speed)